sensor_id;sensor_type;location;lat;lon;timestamp;temperature;humidity
70708;SHT30;58277;47.316;18.908;2023-07-13T00:00:38;24.14;73.81
70708;SHT30;58277;47.316;18.908;2023-07-13T00:03:00;24.24;73.35
70708;SHT30;58277;47.316;18.908;2023-07-13T00:05:24;24.20;72.75
70708;SHT30;58277;47.316;18.908;2023-07-13T00:07:47;24.24;72.70
70708;SHT30;58277;47.316;18.908;2023-07-13T00:10:10;24.28;72.32
70708;SHT30;58277;47.316;18.908;2023-07-13T00:12:35;24.28;71.97
70708;SHT30;58277;47.316;18.908;2023-07-13T00:15:00;24.33;71.99
70708;SHT30;58277;47.316;18.908;2023-07-13T00:17:24;24.35;71.74
70708;SHT30;58277;47.316;18.908;2023-07-13T00:19:46;24.37;71.13
70708;SHT30;58277;47.316;18.908;2023-07-13T00:22:09;24.37;71.00
70708;SHT30;58277;47.316;18.908;2023-07-13T00:24:32;24.30;69.88
70708;SHT30;58277;47.316;18.908;2023-07-13T00:26:55;24.35;70.24
70708;SHT30;58277;47.316;18.908;2023-07-13T00:29:18;24.38;69.18
70708;SHT30;58277;47.316;18.908;2023-07-13T00:31:43;24.41;68.17
70708;SHT30;58277;47.316;18.908;2023-07-13T00:34:07;24.40;67.47
70708;SHT30;58277;47.316;18.908;2023-07-13T00:36:30;24.55;67.25
70708;SHT30;58277;47.316;18.908;2023-07-13T00:38:53;24.54;66.92
70708;SHT30;58277;47.316;18.908;2023-07-13T00:41:16;24.45;67.21
70708;SHT30;58277;47.316;18.908;2023-07-13T00:43:39;24.37;67.36
70708;SHT30;58277;47.316;18.908;2023-07-13T00:48:45;24.55;66.70
70708;SHT30;58277;47.316;18.908;2023-07-13T00:51:10;24.58;66.64
70708;SHT30;58277;47.316;18.908;2023-07-13T00:53:35;24.54;66.95
70708;SHT30;58277;47.316;18.908;2023-07-13T00:55:58;24.38;66.79
70708;SHT30;58277;47.316;18.908;2023-07-13T00:58:24;24.30;67.46
70708;SHT30;58277;47.316;18.908;2023-07-13T01:00:47;24.24;67.86
70708;SHT30;58277;47.316;18.908;2023-07-13T01:03:11;24.27;67.97
70708;SHT30;58277;47.316;18.908;2023-07-13T01:05:35;24.41;67.82
70708;SHT30;58277;47.316;18.908;2023-07-13T01:07:59;24.34;67.70
70708;SHT30;58277;47.316;18.908;2023-07-13T01:10:23;24.33;68.19
70708;SHT30;58277;47.316;18.908;2023-07-13T01:13:10;24.12;68.64
70708;SHT30;58277;47.316;18.908;2023-07-13T01:17:56;24.00;69.58
70708;SHT30;58277;47.316;18.908;2023-07-13T01:20:20;23.97;69.96
70708;SHT30;58277;47.316;18.908;2023-07-13T01:22:43;24.04;70.08
70708;SHT30;58277;47.316;18.908;2023-07-13T01:25:06;24.03;70.20
70708;SHT30;58277;47.316;18.908;2023-07-13T01:27:30;24.07;70.19
70708;SHT30;58277;47.316;18.908;2023-07-13T01:29:53;24.06;70.35
70708;SHT30;58277;47.316;18.908;2023-07-13T01:32:26;24.00;70.46
70708;SHT30;58277;47.316;18.908;2023-07-13T01:34:51;23.87;71.21
70708;SHT30;58277;47.316;18.908;2023-07-13T01:37:17;23.73;71.81
70708;SHT30;58277;47.316;18.908;2023-07-13T01:39:40;23.65;72.34
70708;SHT30;58277;47.316;18.908;2023-07-13T01:42:03;23.56;72.23
70708;SHT30;58277;47.316;18.908;2023-07-13T01:44:26;23.68;72.25
70708;SHT30;58277;47.316;18.908;2023-07-13T01:46:49;23.83;71.94
70708;SHT30;58277;47.316;18.908;2023-07-13T01:49:12;23.83;72.12
70708;SHT30;58277;47.316;18.908;2023-07-13T01:51:35;23.80;71.88
70708;SHT30;58277;47.316;18.908;2023-07-13T01:53:57;23.86;71.85
70708;SHT30;58277;47.316;18.908;2023-07-13T01:59:45;23.72;72.34
70708;SHT30;58277;47.316;18.908;2023-07-13T02:02:08;23.75;72.45
70708;SHT30;58277;47.316;18.908;2023-07-13T02:04:31;23.73;72.57
70708;SHT30;58277;47.316;18.908;2023-07-13T02:06:53;23.68;72.27
70708;SHT30;58277;47.316;18.908;2023-07-13T02:09:18;23.75;72.07
70708;SHT30;58277;47.316;18.908;2023-07-13T02:11:40;23.77;72.04
70708;SHT30;58277;47.316;18.908;2023-07-13T02:14:03;23.86;72.00
70708;SHT30;58277;47.316;18.908;2023-07-13T02:16:26;23.92;72.13
70708;SHT30;58277;47.316;18.908;2023-07-13T02:18:49;23.86;72.40
70708;SHT30;58277;47.316;18.908;2023-07-13T02:21:14;23.70;72.48
70708;SHT30;58277;47.316;18.908;2023-07-13T02:23:37;23.68;72.79
70708;SHT30;58277;47.316;18.908;2023-07-13T02:26:01;23.66;72.80
70708;SHT30;58277;47.316;18.908;2023-07-13T02:28:25;23.63;73.10
70708;SHT30;58277;47.316;18.908;2023-07-13T02:30:47;23.58;73.15
70708;SHT30;58277;47.316;18.908;2023-07-13T02:33:10;23.58;73.22
70708;SHT30;58277;47.316;18.908;2023-07-13T02:35:33;23.58;72.98
70708;SHT30;58277;47.316;18.908;2023-07-13T02:37:56;23.54;73.17
70708;SHT30;58277;47.316;18.908;2023-07-13T02:40:19;23.52;73.41
70708;SHT30;58277;47.316;18.908;2023-07-13T02:42:41;23.54;73.07
70708;SHT30;58277;47.316;18.908;2023-07-13T02:45:05;23.55;73.13
70708;SHT30;58277;47.316;18.908;2023-07-13T02:47:29;23.54;73.04
70708;SHT30;58277;47.316;18.908;2023-07-13T02:49:52;23.42;73.79
70708;SHT30;58277;47.316;18.908;2023-07-13T02:52:15;23.51;73.68
70708;SHT30;58277;47.316;18.908;2023-07-13T02:54:38;23.35;73.73
70708;SHT30;58277;47.316;18.908;2023-07-13T02:57:01;23.38;73.78
70708;SHT30;58277;47.316;18.908;2023-07-13T02:59:23;23.39;73.73
70708;SHT30;58277;47.316;18.908;2023-07-13T03:01:46;23.31;74.09
70708;SHT30;58277;47.316;18.908;2023-07-13T03:04:09;23.38;74.19
70708;SHT30;58277;47.316;18.908;2023-07-13T03:06:33;23.39;74.01
70708;SHT30;58277;47.316;18.908;2023-07-13T03:08:56;23.31;74.15
70708;SHT30;58277;47.316;18.908;2023-07-13T03:11:19;23.21;74.43
70708;SHT30;58277;47.316;18.908;2023-07-13T03:13:48;23.06;75.07
70708;SHT30;58277;47.316;18.908;2023-07-13T03:16:12;23.06;75.07
70708;SHT30;58277;47.316;18.908;2023-07-13T03:18:41;23.15;74.54
70708;SHT30;58277;47.316;18.908;2023-07-13T03:21:06;23.11;74.93
70708;SHT30;58277;47.316;18.908;2023-07-13T03:23:29;23.12;74.55
70708;SHT30;58277;47.316;18.908;2023-07-13T03:26:11;23.00;74.96
70708;SHT30;58277;47.316;18.908;2023-07-13T03:28:36;23.08;74.64
70708;SHT30;58277;47.316;18.908;2023-07-13T03:31:02;23.01;74.28
70708;SHT30;58277;47.316;18.908;2023-07-13T03:33:26;23.03;74.24
70708;SHT30;58277;47.316;18.908;2023-07-13T03:35:49;23.07;73.84
70708;SHT30;58277;47.316;18.908;2023-07-13T03:38:12;23.17;73.49
70708;SHT30;58277;47.316;18.908;2023-07-13T03:40:34;23.22;73.11
70708;SHT30;58277;47.316;18.908;2023-07-13T03:42:57;23.39;72.43
70708;SHT30;58277;47.316;18.908;2023-07-13T03:45:20;23.55;71.89
70708;SHT30;58277;47.316;18.908;2023-07-13T03:47:43;23.56;71.72
70708;SHT30;58277;47.316;18.908;2023-07-13T03:50:06;23.55;71.63
70708;SHT30;58277;47.316;18.908;2023-07-13T03:52:29;23.65;71.03
70708;SHT30;58277;47.316;18.908;2023-07-13T03:54:52;23.63;70.93
70708;SHT30;58277;47.316;18.908;2023-07-13T03:57:16;23.54;71.35
70708;SHT30;58277;47.316;18.908;2023-07-13T03:59:39;23.63;71.23
70708;SHT30;58277;47.316;18.908;2023-07-13T04:02:03;23.59;71.53
70708;SHT30;58277;47.316;18.908;2023-07-13T04:04:28;23.47;71.94
70708;SHT30;58277;47.316;18.908;2023-07-13T04:06:51;23.51;72.11
70708;SHT30;58277;47.316;18.908;2023-07-13T04:09:15;23.58;72.39
70708;SHT30;58277;47.316;18.908;2023-07-13T04:11:38;23.47;72.94
70708;SHT30;58277;47.316;18.908;2023-07-13T04:14:02;23.48;73.00
70708;SHT30;58277;47.316;18.908;2023-07-13T04:16:25;23.48;73.13
70708;SHT30;58277;47.316;18.908;2023-07-13T04:18:49;23.47;73.37
70708;SHT30;58277;47.316;18.908;2023-07-13T04:21:12;23.41;73.51
70708;SHT30;58277;47.316;18.908;2023-07-13T04:23:36;23.39;73.46
70708;SHT30;58277;47.316;18.908;2023-07-13T04:25:59;23.44;73.23
70708;SHT30;58277;47.316;18.908;2023-07-13T04:28:23;23.39;73.70
70708;SHT30;58277;47.316;18.908;2023-07-13T04:30:46;23.32;74.38
70708;SHT30;58277;47.316;18.908;2023-07-13T04:33:09;23.37;74.72
70708;SHT30;58277;47.316;18.908;2023-07-13T04:35:32;23.28;74.66
70708;SHT30;58277;47.316;18.908;2023-07-13T04:37:55;23.31;74.73
70708;SHT30;58277;47.316;18.908;2023-07-13T04:40:18;23.27;75.00
70708;SHT30;58277;47.316;18.908;2023-07-13T04:42:41;23.06;75.81
70708;SHT30;58277;47.316;18.908;2023-07-13T04:45:05;23.01;76.35
70708;SHT30;58277;47.316;18.908;2023-07-13T04:47:30;22.94;76.80
70708;SHT30;58277;47.316;18.908;2023-07-13T04:49:53;22.89;77.83
70708;SHT30;58277;47.316;18.908;2023-07-13T04:52:16;22.84;77.98
70708;SHT30;58277;47.316;18.908;2023-07-13T04:54:39;22.79;78.56
70708;SHT30;58277;47.316;18.908;2023-07-13T04:57:01;22.62;79.56
70708;SHT30;58277;47.316;18.908;2023-07-13T04:59:24;22.46;81.01
70708;SHT30;58277;47.316;18.908;2023-07-13T05:01:47;22.15;82.31
70708;SHT30;58277;47.316;18.908;2023-07-13T05:04:09;22.04;83.84
70708;SHT30;58277;47.316;18.908;2023-07-13T05:06:33;21.97;84.19
70708;SHT30;58277;47.316;18.908;2023-07-13T05:08:55;21.81;84.79
70708;SHT30;58277;47.316;18.908;2023-07-13T05:11:18;21.36;86.52
70708;SHT30;58277;47.316;18.908;2023-07-13T05:13:41;21.13;86.87
70708;SHT30;58277;47.316;18.908;2023-07-13T05:16:05;20.91;87.32
70708;SHT30;58277;47.316;18.908;2023-07-13T05:18:30;20.73;88.29
70708;SHT30;58277;47.316;18.908;2023-07-13T05:21:04;20.63;88.39
70708;SHT30;58277;47.316;18.908;2023-07-13T05:23:28;20.61;88.79
70708;SHT30;58277;47.316;18.908;2023-07-13T05:25:51;20.57;88.44
70708;SHT30;58277;47.316;18.908;2023-07-13T05:28:13;20.60;88.43
70708;SHT30;58277;47.316;18.908;2023-07-13T05:30:36;20.61;88.77
70708;SHT30;58277;47.316;18.908;2023-07-13T05:32:59;20.60;88.59
70708;SHT30;58277;47.316;18.908;2023-07-13T05:35:22;20.63;88.34
70708;SHT30;58277;47.316;18.908;2023-07-13T05:37:44;20.64;87.93
70708;SHT30;58277;47.316;18.908;2023-07-13T05:40:07;20.60;87.52
70708;SHT30;58277;47.316;18.908;2023-07-13T05:42:30;20.56;88.31
70708;SHT30;58277;47.316;18.908;2023-07-13T05:44:53;20.44;88.30
70708;SHT30;58277;47.316;18.908;2023-07-13T05:47:16;20.47;88.11
70708;SHT30;58277;47.316;18.908;2023-07-13T05:49:39;20.46;88.13
70708;SHT30;58277;47.316;18.908;2023-07-13T05:52:02;20.33;87.69
70708;SHT30;58277;47.316;18.908;2023-07-13T05:54:25;20.20;88.03
70708;SHT30;58277;47.316;18.908;2023-07-13T05:56:48;20.22;88.56
70708;SHT30;58277;47.316;18.908;2023-07-13T05:59:11;20.08;87.62
70708;SHT30;58277;47.316;18.908;2023-07-13T06:01:34;19.74;88.14
70708;SHT30;58277;47.316;18.908;2023-07-13T06:03:57;19.71;89.02
70708;SHT30;58277;47.316;18.908;2023-07-13T06:06:20;19.78;88.85
70708;SHT30;58277;47.316;18.908;2023-07-13T06:08:43;19.65;88.54
70708;SHT30;58277;47.316;18.908;2023-07-13T06:11:12;19.65;88.85
70708;SHT30;58277;47.316;18.908;2023-07-13T06:13:36;19.64;88.89
70708;SHT30;58277;47.316;18.908;2023-07-13T06:15:59;19.62;88.52
70708;SHT30;58277;47.316;18.908;2023-07-13T06:18:22;19.81;87.96
70708;SHT30;58277;47.316;18.908;2023-07-13T06:20:46;19.96;87.13
70708;SHT30;58277;47.316;18.908;2023-07-13T06:23:08;20.05;87.09
70708;SHT30;58277;47.316;18.908;2023-07-13T06:25:31;20.04;87.11
70708;SHT30;58277;47.316;18.908;2023-07-13T06:27:54;20.05;87.71
70708;SHT30;58277;47.316;18.908;2023-07-13T06:30:17;20.10;86.59
70708;SHT30;58277;47.316;18.908;2023-07-13T06:32:40;20.39;86.50
70708;SHT30;58277;47.316;18.908;2023-07-13T06:35:03;20.53;85.51
70708;SHT30;58277;47.316;18.908;2023-07-13T06:37:26;20.68;85.15
70708;SHT30;58277;47.316;18.908;2023-07-13T06:39:49;20.92;83.54
70708;SHT30;58277;47.316;18.908;2023-07-13T06:42:12;21.15;83.84
70708;SHT30;58277;47.316;18.908;2023-07-13T06:44:37;21.29;82.99
70708;SHT30;58277;47.316;18.908;2023-07-13T06:46:59;21.77;82.63
70708;SHT30;58277;47.316;18.908;2023-07-13T06:49:22;22.09;82.19
70708;SHT30;58277;47.316;18.908;2023-07-13T06:51:45;22.35;79.19
70708;SHT30;58277;47.316;18.908;2023-07-13T06:54:08;22.60;79.79
70708;SHT30;58277;47.316;18.908;2023-07-13T06:56:30;22.99;76.22
70708;SHT30;58277;47.316;18.908;2023-07-13T06:58:53;23.27;78.56
70708;SHT30;58277;47.316;18.908;2023-07-13T07:01:16;23.61;74.54
70708;SHT30;58277;47.316;18.908;2023-07-13T07:03:39;23.73;75.30
70708;SHT30;58277;47.316;18.908;2023-07-13T07:06:09;23.92;71.55
70708;SHT30;58277;47.316;18.908;2023-07-13T07:08:34;24.18;74.32
70708;SHT30;58277;47.316;18.908;2023-07-13T07:10:57;24.30;74.42
70708;SHT30;58277;47.316;18.908;2023-07-13T07:13:20;24.45;75.45
70708;SHT30;58277;47.316;18.908;2023-07-13T07:15:42;24.40;75.29
70708;SHT30;58277;47.316;18.908;2023-07-13T07:18:05;24.54;74.95
70708;SHT30;58277;47.316;18.908;2023-07-13T07:20:28;24.64;75.19
70708;SHT30;58277;47.316;18.908;2023-07-13T07:22:53;24.81;74.32
70708;SHT30;58277;47.316;18.908;2023-07-13T07:25:16;24.78;74.12
70708;SHT30;58277;47.316;18.908;2023-07-13T07:27:39;24.98;72.77
70708;SHT30;58277;47.316;18.908;2023-07-13T07:30:05;25.17;71.58
70708;SHT30;58277;47.316;18.908;2023-07-13T07:32:32;25.57;71.55
70708;SHT30;58277;47.316;18.908;2023-07-13T07:34:58;25.53;70.84
70708;SHT30;58277;47.316;18.908;2023-07-13T07:37:21;25.22;70.02
70708;SHT30;58277;47.316;18.908;2023-07-13T07:40:04;25.08;71.44
70708;SHT30;58277;47.316;18.908;2023-07-13T07:42:30;24.98;73.12
70708;SHT30;58277;47.316;18.908;2023-07-13T07:44:52;25.02;73.51
70708;SHT30;58277;47.316;18.908;2023-07-13T07:47:15;25.22;73.19
70708;SHT30;58277;47.316;18.908;2023-07-13T07:49:38;25.44;72.81
70708;SHT30;58277;47.316;18.908;2023-07-13T07:52:01;25.31;73.22
70708;SHT30;58277;47.316;18.908;2023-07-13T07:54:24;25.27;73.01
70708;SHT30;58277;47.316;18.908;2023-07-13T07:57:07;25.34;72.22
70708;SHT30;58277;47.316;18.908;2023-07-13T07:59:33;25.17;71.15
70708;SHT30;58277;47.316;18.908;2023-07-13T08:01:59;24.89;70.24
70708;SHT30;58277;47.316;18.908;2023-07-13T08:04:24;24.96;71.74
70708;SHT30;58277;47.316;18.908;2023-07-13T08:06:50;25.16;70.69
70708;SHT30;58277;47.316;18.908;2023-07-13T08:09:13;25.22;70.01
70708;SHT30;58277;47.316;18.908;2023-07-13T08:11:36;25.22;70.18
70708;SHT30;58277;47.316;18.908;2023-07-13T08:14:01;25.10;70.79
70708;SHT30;58277;47.316;18.908;2023-07-13T08:16:24;24.96;70.02
70708;SHT30;58277;47.316;18.908;2023-07-13T08:18:47;25.16;69.96
70708;SHT30;58277;47.316;18.908;2023-07-13T08:21:10;25.12;70.05
70708;SHT30;58277;47.316;18.908;2023-07-13T08:23:34;25.31;71.42
70708;SHT30;58277;47.316;18.908;2023-07-13T08:25:56;25.46;70.99
70708;SHT30;58277;47.316;18.908;2023-07-13T08:28:20;25.54;70.72
70708;SHT30;58277;47.316;18.908;2023-07-13T08:30:43;25.61;68.55
70708;SHT30;58277;47.316;18.908;2023-07-13T08:33:05;25.75;69.99
70708;SHT30;58277;47.316;18.908;2023-07-13T08:35:28;25.75;68.51
70708;SHT30;58277;47.316;18.908;2023-07-13T08:37:51;25.60;68.59
70708;SHT30;58277;47.316;18.908;2023-07-13T08:40:14;25.73;70.86
70708;SHT30;58277;47.316;18.908;2023-07-13T08:42:45;26.05;68.74
70708;SHT30;58277;47.316;18.908;2023-07-13T08:47:40;26.50;67.43
70708;SHT30;58277;47.316;18.908;2023-07-13T08:50:05;26.77;66.64
70708;SHT30;58277;47.316;18.908;2023-07-13T08:52:37;26.87;66.11
70708;SHT30;58277;47.316;18.908;2023-07-13T08:55:09;26.74;65.70
70708;SHT30;58277;47.316;18.908;2023-07-13T08:57:34;26.90;65.14
70708;SHT30;58277;47.316;18.908;2023-07-13T08:59:58;26.77;65.66
70708;SHT30;58277;47.316;18.908;2023-07-13T09:05:03;26.83;64.31
70708;SHT30;58277;47.316;18.908;2023-07-13T09:10:51;26.94;63.34
70708;SHT30;58277;47.316;18.908;2023-07-13T09:15:59;27.33;63.07
70708;SHT30;58277;47.316;18.908;2023-07-13T09:18:33;27.43;61.93
70708;SHT30;58277;47.316;18.908;2023-07-13T09:21:02;27.53;63.42
70708;SHT30;58277;47.316;18.908;2023-07-13T09:23:28;27.60;62.26
70708;SHT30;58277;47.316;18.908;2023-07-13T09:25:54;27.84;62.22
70708;SHT30;58277;47.316;18.908;2023-07-13T09:28:29;28.17;60.28
70708;SHT30;58277;47.316;18.908;2023-07-13T09:31:01;28.28;59.65
70708;SHT30;58277;47.316;18.908;2023-07-13T09:33:25;28.45;59.93
70708;SHT30;58277;47.316;18.908;2023-07-13T09:35:51;28.59;59.37
70708;SHT30;58277;47.316;18.908;2023-07-13T09:38:17;29.03;57.82
70708;SHT30;58277;47.316;18.908;2023-07-13T09:43:08;29.04;56.39
70708;SHT30;58277;47.316;18.908;2023-07-13T09:45:33;28.97;56.32
70708;SHT30;58277;47.316;18.908;2023-07-13T09:48:04;29.00;57.47
70708;SHT30;58277;47.316;18.908;2023-07-13T09:50:28;29.15;56.34
70708;SHT30;58277;47.316;18.908;2023-07-13T09:52:51;29.25;56.77
70708;SHT30;58277;47.316;18.908;2023-07-13T09:55:41;29.39;56.11
70708;SHT30;58277;47.316;18.908;2023-07-13T09:58:18;29.66;55.00
70708;SHT30;58277;47.316;18.908;2023-07-13T10:01:04;29.79;54.57
70708;SHT30;58277;47.316;18.908;2023-07-13T10:03:33;29.83;54.50
70708;SHT30;58277;47.316;18.908;2023-07-13T10:06:16;29.62;53.41
70708;SHT30;58277;47.316;18.908;2023-07-13T10:08:40;29.75;54.84
70708;SHT30;58277;47.316;18.908;2023-07-13T10:11:11;29.55;55.08
70708;SHT30;58277;47.316;18.908;2023-07-13T10:13:43;29.18;55.39
70708;SHT30;58277;47.316;18.908;2023-07-13T10:16:07;29.30;56.27
70708;SHT30;58277;47.316;18.908;2023-07-13T10:21:20;29.15;56.03
70708;SHT30;58277;47.316;18.908;2023-07-13T10:24:10;29.15;55.82
70708;SHT30;58277;47.316;18.908;2023-07-13T10:26:36;29.06;55.36
70708;SHT30;58277;47.316;18.908;2023-07-13T10:29:11;29.00;55.47
70708;SHT30;58277;47.316;18.908;2023-07-13T10:31:37;29.04;56.92
70708;SHT30;58277;47.316;18.908;2023-07-13T10:34:00;29.20;54.76
70708;SHT30;58277;47.316;18.908;2023-07-13T10:36:34;29.15;54.46
70708;SHT30;58277;47.316;18.908;2023-07-13T10:39:02;28.97;55.22
70708;SHT30;58277;47.316;18.908;2023-07-13T10:41:27;29.17;55.32
70708;SHT30;58277;47.316;18.908;2023-07-13T10:43:53;29.07;56.22
70708;SHT30;58277;47.316;18.908;2023-07-13T10:46:19;29.17;54.34
70708;SHT30;58277;47.316;18.908;2023-07-13T10:48:45;29.17;54.74
70708;SHT30;58277;47.316;18.908;2023-07-13T10:51:10;29.32;54.36
70708;SHT30;58277;47.316;18.908;2023-07-13T10:53:37;29.30;54.81
70708;SHT30;58277;47.316;18.908;2023-07-13T10:56:02;29.48;55.27
70708;SHT30;58277;47.316;18.908;2023-07-13T10:58:35;29.37;55.20
70708;SHT30;58277;47.316;18.908;2023-07-13T11:01:11;29.34;54.91
70708;SHT30;58277;47.316;18.908;2023-07-13T11:03:37;29.35;54.67
70708;SHT30;58277;47.316;18.908;2023-07-13T11:08:54;29.30;53.50
70708;SHT30;58277;47.316;18.908;2023-07-13T11:18:50;29.62;51.95
70708;SHT30;58277;47.316;18.908;2023-07-13T11:21:18;29.66;52.38
70708;SHT30;58277;47.316;18.908;2023-07-13T11:31:40;30.53;49.87
70708;SHT30;58277;47.316;18.908;2023-07-13T11:34:06;30.78;50.58
70708;SHT30;58277;47.316;18.908;2023-07-13T11:36:37;30.84;49.10
70708;SHT30;58277;47.316;18.908;2023-07-13T11:39:20;30.84;49.70
70708;SHT30;58277;47.316;18.908;2023-07-13T11:41:57;30.92;48.74
70708;SHT30;58277;47.316;18.908;2023-07-13T11:44:21;30.93;48.35
70708;SHT30;58277;47.316;18.908;2023-07-13T11:46:50;30.95;48.30
70708;SHT30;58277;47.316;18.908;2023-07-13T11:49:19;31.09;48.21
70708;SHT30;58277;47.316;18.908;2023-07-13T11:51:46;30.89;49.43
70708;SHT30;58277;47.316;18.908;2023-07-13T11:54:30;30.79;48.47
70708;SHT30;58277;47.316;18.908;2023-07-13T11:56:56;30.81;48.04
70708;SHT30;58277;47.316;18.908;2023-07-13T11:59:20;31.02;48.20
70708;SHT30;58277;47.316;18.908;2023-07-13T12:01:51;31.15;48.59
70708;SHT30;58277;47.316;18.908;2023-07-13T12:04:24;30.93;48.26
70708;SHT30;58277;47.316;18.908;2023-07-13T12:06:55;31.02;47.32
70708;SHT30;58277;47.316;18.908;2023-07-13T12:09:18;31.08;48.71
70708;SHT30;58277;47.316;18.908;2023-07-13T12:11:43;30.96;49.45
70708;SHT30;58277;47.316;18.908;2023-07-13T12:14:13;31.08;49.59
70708;SHT30;58277;47.316;18.908;2023-07-13T12:16:37;31.08;49.06
70708;SHT30;58277;47.316;18.908;2023-07-13T12:19:01;30.75;50.03
70708;SHT30;58277;47.316;18.908;2023-07-13T12:21:32;30.67;49.64
70708;SHT30;58277;47.316;18.908;2023-07-13T12:23:56;30.49;50.24
70708;SHT30;58277;47.316;18.908;2023-07-13T12:26:19;30.18;51.55
70708;SHT30;58277;47.316;18.908;2023-07-13T12:28:52;30.13;50.92
70708;SHT30;58277;47.316;18.908;2023-07-13T12:31:34;30.02;50.87
70708;SHT30;58277;47.316;18.908;2023-07-13T12:34:00;30.18;50.76
70708;SHT30;58277;47.316;18.908;2023-07-13T12:36:22;30.24;50.48
70708;SHT30;58277;47.316;18.908;2023-07-13T12:42:28;30.78;49.03
70708;SHT30;58277;47.316;18.908;2023-07-13T12:45:02;30.84;49.41
70708;SHT30;58277;47.316;18.908;2023-07-13T12:47:27;30.74;49.79
70708;SHT30;58277;47.316;18.908;2023-07-13T12:49:57;30.57;49.29
70708;SHT30;58277;47.316;18.908;2023-07-13T12:52:23;30.48;49.44
70708;SHT30;58277;47.316;18.908;2023-07-13T12:55:16;30.31;50.11
70708;SHT30;58277;47.316;18.908;2023-07-13T12:57:42;30.44;50.01
70708;SHT30;58277;47.316;18.908;2023-07-13T13:02:53;30.67;47.63
70708;SHT30;58277;47.316;18.908;2023-07-13T13:05:26;30.44;47.37
70708;SHT30;58277;47.316;18.908;2023-07-13T13:07:50;30.48;48.49
70708;SHT30;58277;47.316;18.908;2023-07-13T13:10:13;30.17;49.75
70708;SHT30;58277;47.316;18.908;2023-07-13T13:12:36;30.26;50.36
70708;SHT30;58277;47.316;18.908;2023-07-13T13:14:59;30.24;51.29
70708;SHT30;58277;47.316;18.908;2023-07-13T13:17:29;30.37;49.85
70708;SHT30;58277;47.316;18.908;2023-07-13T13:19:53;30.37;50.11
70708;SHT30;58277;47.316;18.908;2023-07-13T13:22:16;30.44;49.71
70708;SHT30;58277;47.316;18.908;2023-07-13T13:24:40;30.55;49.98
70708;SHT30;58277;47.316;18.908;2023-07-13T13:27:03;30.60;48.52
70708;SHT30;58277;47.316;18.908;2023-07-13T13:29:26;30.43;49.72
70708;SHT30;58277;47.316;18.908;2023-07-13T13:31:49;30.30;48.31
70708;SHT30;58277;47.316;18.908;2023-07-13T13:34:14;30.24;50.16
70708;SHT30;58277;47.316;18.908;2023-07-13T13:36:38;30.36;49.14
70708;SHT30;58277;47.316;18.908;2023-07-13T13:39:01;30.28;48.36
70708;SHT30;58277;47.316;18.908;2023-07-13T13:41:24;30.44;48.47
70708;SHT30;58277;47.316;18.908;2023-07-13T13:43:47;30.60;48.55
70708;SHT30;58277;47.316;18.908;2023-07-13T13:46:23;30.71;49.38
70708;SHT30;58277;47.316;18.908;2023-07-13T13:48:48;30.85;49.97
70708;SHT30;58277;47.316;18.908;2023-07-13T13:51:19;30.92;49.75
70708;SHT30;58277;47.316;18.908;2023-07-13T13:53:42;31.12;48.07
70708;SHT30;58277;47.316;18.908;2023-07-13T13:56:05;30.92;46.72
70708;SHT30;58277;47.316;18.908;2023-07-13T13:58:27;30.95;46.96
70708;SHT30;58277;47.316;18.908;2023-07-13T14:00:50;30.79;48.29
70708;SHT30;58277;47.316;18.908;2023-07-13T14:03:18;30.81;48.09
70708;SHT30;58277;47.316;18.908;2023-07-13T14:05:41;30.79;47.38
70708;SHT30;58277;47.316;18.908;2023-07-13T14:08:04;30.71;48.52
70708;SHT30;58277;47.316;18.908;2023-07-13T14:10:27;30.58;48.79
70708;SHT30;58277;47.316;18.908;2023-07-13T14:12:52;30.47;47.85
70708;SHT30;58277;47.316;18.908;2023-07-13T14:15:22;30.55;48.43
70708;SHT30;58277;47.316;18.908;2023-07-13T14:17:45;30.58;48.68
70708;SHT30;58277;47.316;18.908;2023-07-13T14:20:14;30.64;47.10
70708;SHT30;58277;47.316;18.908;2023-07-13T14:22:38;30.64;47.49
70708;SHT30;58277;47.316;18.908;2023-07-13T14:25:00;30.55;48.12
70708;SHT30;58277;47.316;18.908;2023-07-13T14:27:24;30.23;47.95
70708;SHT30;58277;47.316;18.908;2023-07-13T14:29:47;30.20;49.15
70708;SHT30;58277;47.316;18.908;2023-07-13T14:32:11;30.37;47.86
70708;SHT30;58277;47.316;18.908;2023-07-13T14:34:34;30.26;49.29
70708;SHT30;58277;47.316;18.908;2023-07-13T14:36:57;30.24;49.07
70708;SHT30;58277;47.316;18.908;2023-07-13T14:39:22;30.21;49.63
70708;SHT30;58277;47.316;18.908;2023-07-13T14:41:46;30.33;48.94
70708;SHT30;58277;47.316;18.908;2023-07-13T14:44:22;30.44;48.64
70708;SHT30;58277;47.316;18.908;2023-07-13T14:46:46;30.33;49.47
70708;SHT30;58277;47.316;18.908;2023-07-13T14:49:36;30.36;49.64
70708;SHT30;58277;47.316;18.908;2023-07-13T14:52:00;30.33;49.50
70708;SHT30;58277;47.316;18.908;2023-07-13T14:54:24;30.16;48.80
70708;SHT30;58277;47.316;18.908;2023-07-13T14:56:47;30.13;49.97
70708;SHT30;58277;47.316;18.908;2023-07-13T14:59:10;29.88;50.60
70708;SHT30;58277;47.316;18.908;2023-07-13T15:01:36;29.95;49.54
70708;SHT30;58277;47.316;18.908;2023-07-13T15:04:00;29.96;50.57
70708;SHT30;58277;47.316;18.908;2023-07-13T15:06:23;29.88;50.49
70708;SHT30;58277;47.316;18.908;2023-07-13T15:08:46;29.68;51.94
70708;SHT30;58277;47.316;18.908;2023-07-13T15:11:10;29.63;51.50
70708;SHT30;58277;47.316;18.908;2023-07-13T15:13:35;29.61;51.07
70708;SHT30;58277;47.316;18.908;2023-07-13T15:16:00;29.48;51.06
70708;SHT30;58277;47.316;18.908;2023-07-13T15:18:24;29.38;51.43
70708;SHT30;58277;47.316;18.908;2023-07-13T15:20:49;29.14;52.75
70708;SHT30;58277;47.316;18.908;2023-07-13T15:23:14;29.06;52.61
70708;SHT30;58277;47.316;18.908;2023-07-13T15:25:37;29.03;53.19
70708;SHT30;58277;47.316;18.908;2023-07-13T15:28:00;28.89;52.20
70708;SHT30;58277;47.316;18.908;2023-07-13T15:30:29;28.87;52.51
70708;SHT30;58277;47.316;18.908;2023-07-13T15:32:52;28.86;53.62
70708;SHT30;58277;47.316;18.908;2023-07-13T15:35:16;28.75;53.34
70708;SHT30;58277;47.316;18.908;2023-07-13T15:37:40;28.75;53.77
70708;SHT30;58277;47.316;18.908;2023-07-13T15:40:03;28.73;53.07
70708;SHT30;58277;47.316;18.908;2023-07-13T15:42:25;28.67;53.87
70708;SHT30;58277;47.316;18.908;2023-07-13T15:44:49;28.56;54.39
70708;SHT30;58277;47.316;18.908;2023-07-13T15:47:12;28.49;54.38
70708;SHT30;58277;47.316;18.908;2023-07-13T15:49:35;28.51;54.83
70708;SHT30;58277;47.316;18.908;2023-07-13T15:51:58;28.42;55.62